createdAt,value
2023-03-29T00:00:13.989Z,1.00
2023-03-29T00:02:42.796Z,1.00
2023-03-29T00:05:12.291Z,1.00
2023-03-29T00:07:41.185Z,1.00
2023-03-29T00:10:11.700Z,1.00
2023-03-29T00:12:41.528Z,1.00
2023-03-29T00:15:16.901Z,1.00
2023-03-29T00:17:44.945Z,1.00
2023-03-29T00:20:13.775Z,1.00
2023-03-29T00:22:43.022Z,1.00
2023-03-29T00:25:11.715Z,1.00
2023-03-29T00:27:39.967Z,1.00
2023-03-29T00:30:10.248Z,1.00
2023-03-29T00:32:40.779Z,1.00
2023-03-29T00:35:09.127Z,1.00
2023-03-29T00:37:37.989Z,1.00
2023-03-29T00:40:09.592Z,1.00
2023-03-29T00:42:38.067Z,1.00
2023-03-29T00:45:17.397Z,1.00
2023-03-29T00:47:49.879Z,1.00
2023-03-29T00:50:22.364Z,1.00
2023-03-29T00:52:55.434Z,1.00
2023-03-29T00:55:25.846Z,1.00
2023-03-29T00:57:56.872Z,1.00
2023-03-29T01:00:31.744Z,1.00
2023-03-29T01:03:04.194Z,1.00
2023-03-29T01:05:37.645Z,1.00
2023-03-29T01:08:11.066Z,1.00
2023-03-29T01:10:43.621Z,1.00
2023-03-29T01:13:16.139Z,1.00
2023-03-29T01:15:46.376Z,1.00
2023-03-29T01:18:15.736Z,1.00
2023-03-29T01:21:02.865Z,1.00
2023-03-29T01:23:47.327Z,1.00
2023-03-29T01:26:22.879Z,1.00
2023-03-29T01:28:56.880Z,1.00
2023-03-29T01:31:28.706Z,1.00
2023-03-29T01:34:03.329Z,1.00
2023-03-29T01:36:39.651Z,1.00
2023-03-29T01:39:08.484Z,1.00
2023-03-29T01:41:46.652Z,1.00
2023-03-29T01:44:20.848Z,1.00
2023-03-29T01:46:53.313Z,1.00
2023-03-29T01:49:27.092Z,1.00
2023-03-29T01:51:59.565Z,1.00
2023-03-29T01:54:32.643Z,1.00
2023-03-29T01:57:03.884Z,1.00
2023-03-29T01:59:36.927Z,1.00
2023-03-29T02:02:11.225Z,1.00
2023-03-29T02:04:44.741Z,1.00
2023-03-29T02:07:13.969Z,1.00
2023-03-29T02:09:43.363Z,1.00
2023-03-29T02:12:13.095Z,1.00
2023-03-29T02:14:42.401Z,1.00
2023-03-29T02:17:21.255Z,1.00
2023-03-29T02:19:53.435Z,1.00
2023-03-29T02:22:28.531Z,1.00
2023-03-29T02:24:59.925Z,1.00
2023-03-29T02:27:29.127Z,1.10
2023-03-29T02:29:59.114Z,1.10
2023-03-29T02:32:35.036Z,1.10
2023-03-29T02:35:08.351Z,1.00
2023-03-29T02:37:41.023Z,1.00
2023-03-29T02:40:12.500Z,1.00
2023-03-29T02:42:42.127Z,1.00
2023-03-29T02:45:14.992Z,1.00
2023-03-29T02:47:46.616Z,1.00
2023-03-29T02:50:14.893Z,1.00
2023-03-29T02:52:47.145Z,1.00
2023-03-29T02:55:18.781Z,1.00
2023-03-29T02:57:46.783Z,1.00
2023-03-29T03:00:20.213Z,1.10
2023-03-29T03:02:50.862Z,1.00
2023-03-29T03:05:19.352Z,1.00
2023-03-29T03:07:47.312Z,1.00
2023-03-29T03:10:15.925Z,1.00
2023-03-29T03:12:43.861Z,1.00
2023-03-29T03:15:12.296Z,1.10
2023-03-29T03:17:41.779Z,1.10
2023-03-29T03:20:13.679Z,1.10
2023-03-29T03:22:43.207Z,1.10
2023-03-29T03:25:11.640Z,1.10
2023-03-29T03:27:39.887Z,1.10
2023-03-29T03:30:10.167Z,1.10
2023-03-29T03:32:38.524Z,1.10
2023-03-29T03:35:08.730Z,1.10
2023-03-29T03:37:38.331Z,1.10
2023-03-29T03:40:11.797Z,1.10
2023-03-29T03:42:40.179Z,1.10
2023-03-29T03:45:09.795Z,1.10
2023-03-29T03:47:38.402Z,1.10
2023-03-29T03:50:09.572Z,1.10
2023-03-29T03:52:37.492Z,1.10
2023-03-29T03:55:05.990Z,1.10
2023-03-29T03:57:37.526Z,1.10
2023-03-29T04:00:19.361Z,1.10
2023-03-29T04:02:48.442Z,1.10
2023-03-29T04:05:18.204Z,1.10
2023-03-29T04:07:46.201Z,1.10
2023-03-29T04:10:14.321Z,1.10
2023-03-29T04:12:42.435Z,1.10
2023-03-29T04:15:12.135Z,1.10
2023-03-29T04:17:40.561Z,1.10
2023-03-29T04:20:12.323Z,1.10
2023-03-29T04:22:42.042Z,1.10
2023-03-29T04:25:11.693Z,1.10
2023-03-29T04:27:40.511Z,1.10
2023-03-29T04:30:10.176Z,1.10
2023-03-29T04:32:38.900Z,1.10
2023-03-29T04:35:08.034Z,1.10
2023-03-29T04:37:36.887Z,1.10
2023-03-29T04:40:09.183Z,1.10
2023-03-29T04:42:37.351Z,1.20
2023-03-29T04:45:07.029Z,1.10
2023-03-29T04:47:36.531Z,1.20
2023-03-29T04:50:04.703Z,1.10
2023-03-29T04:52:33.370Z,1.10
2023-03-29T04:55:01.951Z,1.10
2023-03-29T04:57:31.414Z,1.10
2023-03-29T04:59:59.342Z,1.20
2023-03-29T05:02:27.339Z,1.10
2023-03-29T05:04:55.356Z,1.20
2023-03-29T05:07:23.329Z,1.20
2023-03-29T05:09:51.299Z,1.20
2023-03-29T05:12:19.278Z,1.10
2023-03-29T05:14:48.559Z,1.20
2023-03-29T05:17:16.562Z,1.20
2023-03-29T05:19:44.568Z,1.20
2023-03-29T05:22:12.543Z,1.30
2023-03-29T05:24:42.069Z,1.20
2023-03-29T05:27:10.023Z,1.20
2023-03-29T05:29:37.945Z,1.20
2023-03-29T05:32:08.105Z,1.20
2023-03-29T05:34:36.445Z,1.20
2023-03-29T05:37:04.381Z,1.20
2023-03-29T05:39:34.594Z,1.30
2023-03-29T05:42:05.493Z,1.30
2023-03-29T05:44:33.689Z,1.20
2023-03-29T05:47:01.960Z,1.30
2023-03-29T05:49:31.829Z,1.20
2023-03-29T05:51:59.958Z,1.20
2023-03-29T05:54:28.169Z,1.30
2023-03-29T05:56:56.259Z,1.30
2023-03-29T05:59:24.679Z,1.30
2023-03-29T06:01:52.918Z,1.30
2023-03-29T06:04:21.153Z,1.30
2023-03-29T06:06:50.509Z,1.30
2023-03-29T06:09:19.104Z,1.30
2023-03-29T06:11:47.666Z,1.30
2023-03-29T06:14:15.773Z,1.30
2023-03-29T06:16:44.911Z,1.30
2023-03-29T06:19:12.923Z,1.30
2023-03-29T06:21:41.239Z,1.30
2023-03-29T06:24:10.580Z,1.40
2023-03-29T06:26:38.504Z,1.30
2023-03-29T06:29:06.454Z,1.30
2023-03-29T06:31:36.139Z,1.30
2023-03-29T06:34:04.771Z,1.90
2023-03-29T06:36:34.293Z,1.30
2023-03-29T06:39:03.891Z,1.30
2023-03-29T06:41:33.183Z,1.30
2023-03-29T06:44:01.103Z,1.30
2023-03-29T06:46:29.123Z,1.30
2023-03-29T06:48:57.158Z,1.30
2023-03-29T06:51:25.076Z,1.30
2023-03-29T06:53:52.997Z,1.30
2023-03-29T06:56:22.255Z,1.30
2023-03-29T06:58:51.570Z,1.30
2023-03-29T07:01:19.543Z,1.30
2023-03-29T07:03:47.837Z,1.40
2023-03-29T07:06:17.714Z,1.40
2023-03-29T07:08:47.326Z,1.40
2023-03-29T07:11:17.753Z,1.40
2023-03-29T07:13:46.228Z,1.40
2023-03-29T07:16:16.209Z,1.40
2023-03-29T07:18:46.028Z,1.40
2023-03-29T07:21:14.395Z,1.40
2023-03-29T07:23:42.525Z,1.40
2023-03-29T07:26:11.093Z,1.40
2023-03-29T07:28:40.312Z,1.40
2023-03-29T07:31:11.828Z,1.40
2023-03-29T07:33:42.715Z,1.40
2023-03-29T07:36:11.614Z,1.40
2023-03-29T07:38:39.584Z,1.40
2023-03-29T07:41:08.634Z,1.40
2023-03-29T07:43:36.625Z,1.40
2023-03-29T07:46:06.367Z,1.40
2023-03-29T07:48:37.098Z,1.40
2023-03-29T07:51:07.367Z,1.40
2023-03-29T07:53:35.401Z,1.40
2023-03-29T07:56:03.323Z,1.40
2023-03-29T07:58:31.373Z,1.40
2023-03-29T08:01:01.137Z,1.40
2023-03-29T08:03:29.435Z,1.40
2023-03-29T08:05:57.469Z,1.40
2023-03-29T08:08:26.759Z,1.40
2023-03-29T08:10:54.834Z,1.40
2023-03-29T08:13:22.852Z,1.50
2023-03-29T08:15:50.857Z,1.50
2023-03-29T08:18:19.096Z,1.50
2023-03-29T08:20:47.035Z,2.10
2023-03-29T08:23:14.996Z,1.50
2023-03-29T08:25:44.303Z,1.50
2023-03-29T08:28:12.364Z,1.50
2023-03-29T08:30:40.495Z,1.50
2023-03-29T08:33:08.831Z,1.50
2023-03-29T08:35:36.906Z,1.50
2023-03-29T08:38:05.388Z,1.50
2023-03-29T08:40:33.317Z,1.50
2023-03-29T08:43:32.056Z,1.50
2023-03-29T08:46:09.973Z,1.50
2023-03-29T08:48:42.638Z,1.40
2023-03-29T08:51:21.557Z,1.50
2023-03-29T08:53:53.385Z,1.40
2023-03-29T08:56:25.967Z,1.40
2023-03-29T08:58:57.062Z,1.40
2023-03-29T09:01:28.790Z,1.50
2023-03-29T09:04:04.730Z,1.40
2023-03-29T09:06:33.008Z,1.50
2023-03-29T09:09:01.577Z,1.50
2023-03-29T09:11:42.777Z,1.60
2023-03-29T09:14:31.967Z,1.50
2023-03-29T09:17:06.977Z,1.50
2023-03-29T09:19:40.689Z,1.50
2023-03-29T09:22:18.336Z,1.60
2023-03-29T09:24:55.616Z,1.60
2023-03-29T09:27:27.990Z,1.60
2023-03-29T09:30:14.791Z,1.60
2023-03-29T09:32:49.351Z,1.60
2023-03-29T09:35:23.044Z,1.60
2023-03-29T09:37:53.240Z,1.60
2023-03-29T09:40:25.204Z,1.60
2023-03-29T09:42:55.983Z,1.60
2023-03-29T09:45:25.572Z,1.70
2023-03-29T09:47:57.617Z,1.60
2023-03-29T09:50:32.331Z,1.60
2023-03-29T09:53:01.203Z,1.60
2023-03-29T09:55:32.348Z,1.60
2023-03-29T09:58:24.825Z,1.60
2023-03-29T10:00:55.509Z,1.60
2023-03-29T10:03:25.834Z,1.60
2023-03-29T10:05:56.710Z,1.60
2023-03-29T10:08:28.272Z,1.60
2023-03-29T10:10:58.619Z,1.60
2023-03-29T10:13:31.001Z,1.60
2023-03-29T10:16:03.479Z,1.70
2023-03-29T10:18:31.988Z,1.70
2023-03-29T10:21:02.670Z,1.70
2023-03-29T10:23:33.236Z,2.20
2023-03-29T10:26:04.179Z,1.60
2023-03-29T10:28:33.405Z,1.70
2023-03-29T10:31:04.005Z,1.60
2023-03-29T10:33:35.588Z,1.60
2023-03-29T10:36:07.899Z,1.70
2023-03-29T10:38:37.509Z,1.70
2023-03-29T10:41:08.606Z,1.70
2023-03-29T10:43:38.449Z,1.70
2023-03-29T10:46:10.781Z,1.70
2023-03-29T10:48:39.211Z,1.70
2023-03-29T10:51:08.058Z,1.70
2023-03-29T10:53:37.787Z,1.70
2023-03-29T10:56:24.496Z,1.70
2023-03-29T10:59:17.104Z,1.70
2023-03-29T11:02:01.701Z,1.70
2023-03-29T11:04:38.974Z,1.70
2023-03-29T11:07:26.267Z,1.80
2023-03-29T11:10:02.950Z,1.70
2023-03-29T11:12:40.291Z,1.70
2023-03-29T11:15:33.478Z,1.80
2023-03-29T11:18:14.424Z,1.70
2023-03-29T11:20:46.376Z,1.80
2023-03-29T11:23:30.862Z,1.80
2023-03-29T11:26:09.861Z,1.80
2023-03-29T11:28:45.748Z,1.80
2023-03-29T11:31:23.689Z,1.80
2023-03-29T11:34:06.300Z,1.80
2023-03-29T11:36:42.836Z,1.80
2023-03-29T11:39:20.169Z,1.80
2023-03-29T11:41:53.043Z,1.80
2023-03-29T11:44:25.809Z,1.90
2023-03-29T11:46:59.504Z,1.80
2023-03-29T11:49:34.150Z,1.90
2023-03-29T11:52:06.808Z,1.80
2023-03-29T11:54:41.119Z,1.80
2023-03-29T11:57:15.047Z,1.80
2023-03-29T11:59:51.323Z,1.80
2023-03-29T12:02:25.406Z,1.80
2023-03-29T12:04:58.478Z,1.90
2023-03-29T12:07:32.163Z,1.90
2023-03-29T12:10:06.088Z,1.90
2023-03-29T12:12:43.599Z,1.90
2023-03-29T12:15:17.188Z,1.90
2023-03-29T12:17:50.987Z,1.90
2023-03-29T12:20:26.942Z,1.90
2023-03-29T12:22:56.218Z,1.90
2023-03-29T12:25:27.752Z,1.90
2023-03-29T12:28:08.387Z,1.90
2023-03-29T12:30:50.602Z,1.90
2023-03-29T12:33:44.848Z,1.90
2023-03-29T12:36:42.481Z,1.90
2023-03-29T12:39:15.359Z,2.00
2023-03-29T12:41:48.719Z,2.00
2023-03-29T12:44:18.573Z,1.90
2023-03-29T12:46:47.175Z,2.00
2023-03-29T12:49:25.445Z,1.90
2023-03-29T12:51:57.741Z,1.90
2023-03-29T12:54:28.993Z,1.90
2023-03-29T12:57:00.358Z,2.00
2023-03-29T12:59:38.808Z,2.00
2023-03-29T13:02:28.278Z,2.00
2023-03-29T13:04:58.711Z,2.00
2023-03-29T13:07:34.560Z,2.00
2023-03-29T13:10:03.737Z,2.00
2023-03-29T13:12:39.841Z,2.00
2023-03-29T13:15:23.044Z,2.10
2023-03-29T13:17:59.522Z,2.00
2023-03-29T13:20:46.244Z,2.00
2023-03-29T13:23:31.949Z,2.00
2023-03-29T13:26:21.518Z,2.10
2023-03-29T13:29:06.072Z,2.10
2023-03-29T13:31:40.337Z,2.00
2023-03-29T13:34:21.518Z,2.10
2023-03-29T13:37:02.525Z,2.10
2023-03-29T13:39:34.573Z,2.10
2023-03-29T13:42:22.228Z,2.10
2023-03-29T13:45:17.293Z,2.10
2023-03-29T13:47:58.656Z,2.10
2023-03-29T13:50:37.018Z,2.10
2023-03-29T13:53:11.948Z,2.10
2023-03-29T13:55:47.018Z,2.10
2023-03-29T13:58:25.180Z,2.10
2023-03-29T14:00:56.353Z,2.10
2023-03-29T14:03:29.787Z,2.10
2023-03-29T14:06:01.464Z,2.10
2023-03-29T14:08:34.060Z,2.10
2023-03-29T14:11:09.301Z,2.10
2023-03-29T14:13:37.538Z,2.10
2023-03-29T14:16:08.708Z,2.10
2023-03-29T14:18:41.036Z,2.20
2023-03-29T14:21:12.030Z,2.20
2023-03-29T14:23:42.069Z,2.20
2023-03-29T14:26:16.402Z,2.10
2023-03-29T14:28:48.582Z,2.20
2023-03-29T14:31:20.689Z,2.30
2023-03-29T14:33:53.471Z,2.30
2023-03-29T14:36:22.474Z,2.20
2023-03-29T14:38:53.304Z,2.20
2023-03-29T14:41:24.414Z,2.20
2023-03-29T14:43:52.576Z,2.50
2023-03-29T14:46:22.891Z,2.20
2023-03-29T14:48:51.041Z,2.20
2023-03-29T14:51:20.077Z,2.30
2023-03-29T14:53:49.397Z,2.30
2023-03-29T14:56:24.024Z,2.30
2023-03-29T14:58:55.731Z,2.30
2023-03-29T15:01:25.399Z,2.40
2023-03-29T15:03:58.329Z,2.30
2023-03-29T15:06:28.155Z,2.30
2023-03-29T15:09:06.176Z,2.30
2023-03-29T15:11:35.042Z,2.30
2023-03-29T15:14:06.346Z,2.30
2023-03-29T15:16:34.765Z,2.30
2023-03-29T15:19:03.535Z,2.30
2023-03-29T15:21:33.626Z,2.30
2023-03-29T15:24:03.480Z,2.30
2023-03-29T15:26:33.557Z,2.30
2023-03-29T15:29:12.698Z,2.30
2023-03-29T15:31:42.235Z,2.30
2023-03-29T15:34:12.897Z,2.30
2023-03-29T15:36:43.137Z,2.40
2023-03-29T15:39:13.458Z,2.40
2023-03-29T15:41:41.440Z,2.30
2023-03-29T15:44:11.674Z,2.40
2023-03-29T15:46:39.728Z,2.40
2023-03-29T15:49:12.336Z,2.30
2023-03-29T15:51:41.526Z,2.30
2023-03-29T15:54:09.504Z,2.40
2023-03-29T15:56:44.505Z,2.40
2023-03-29T15:59:13.943Z,2.40
2023-03-29T16:01:42.117Z,2.40
2023-03-29T16:04:13.990Z,2.40
2023-03-29T16:06:42.751Z,2.40
2023-03-29T16:09:11.866Z,2.40
2023-03-29T16:11:40.753Z,2.40
2023-03-29T16:14:25.227Z,2.40
2023-03-29T16:16:55.347Z,2.50
2023-03-29T16:19:23.534Z,2.40
2023-03-29T16:21:52.578Z,2.40
2023-03-29T16:24:21.910Z,2.40
2023-03-29T16:26:49.956Z,2.40
2023-03-29T16:29:18.208Z,2.50
2023-03-29T16:31:49.097Z,2.50
2023-03-29T16:34:18.714Z,2.50
2023-03-29T16:36:47.588Z,2.50
2023-03-29T16:39:16.864Z,2.50
2023-03-29T16:41:48.259Z,2.50
2023-03-29T16:44:20.046Z,2.50
2023-03-29T16:46:52.601Z,2.50
2023-03-29T16:49:20.595Z,2.50
2023-03-29T16:51:49.026Z,2.50
2023-03-29T16:54:18.820Z,2.50
2023-03-29T16:56:46.912Z,2.50
2023-03-29T16:59:15.240Z,2.50
2023-03-29T17:01:43.297Z,2.60
2023-03-29T17:04:12.697Z,2.50
2023-03-29T17:06:40.894Z,2.50
2023-03-29T17:09:09.639Z,2.60
2023-03-29T17:11:37.649Z,2.60
2023-03-29T17:14:05.703Z,2.60
2023-03-29T17:16:33.688Z,2.60
2023-03-29T17:19:01.753Z,2.60
2023-03-29T17:21:31.677Z,2.50
2023-03-29T17:23:59.641Z,2.60
2023-03-29T17:26:28.198Z,2.50
2023-03-29T17:28:56.118Z,2.50
2023-03-29T17:31:24.435Z,2.60
2023-03-29T17:33:52.472Z,2.50
2023-03-29T17:36:25.028Z,2.50
2023-03-29T17:38:54.697Z,2.50
2023-03-29T17:41:22.893Z,2.50
2023-03-29T17:43:51.937Z,2.50
2023-03-29T17:46:22.838Z,2.50
2023-03-29T17:48:51.690Z,2.60
2023-03-29T17:51:20.554Z,2.60
2023-03-29T17:53:48.513Z,2.60
2023-03-29T17:56:19.994Z,2.60
2023-03-29T17:58:49.031Z,2.60
2023-03-29T18:01:19.491Z,2.60
2023-03-29T18:03:48.576Z,2.70
2023-03-29T18:06:20.264Z,2.60
2023-03-29T18:08:48.796Z,2.60
2023-03-29T18:11:22.401Z,2.60
2023-03-29T18:13:50.787Z,2.60
2023-03-29T18:16:19.256Z,2.70
2023-03-29T18:18:47.511Z,2.70
2023-03-29T18:21:16.510Z,2.70
2023-03-29T18:23:47.053Z,2.70
2023-03-29T18:26:16.057Z,2.70
2023-03-29T18:28:47.108Z,2.70
2023-03-29T18:31:15.918Z,2.70
2023-03-29T18:33:44.145Z,2.60
2023-03-29T18:36:13.493Z,2.70
2023-03-29T18:38:43.264Z,2.70
2023-03-29T18:41:13.466Z,2.80
2023-03-29T18:43:43.178Z,2.70
2023-03-29T18:46:13.943Z,2.70
2023-03-29T18:48:42.301Z,2.70
2023-03-29T18:51:12.572Z,2.70
2023-03-29T18:53:41.980Z,2.80
2023-03-29T18:56:09.954Z,2.80
2023-03-29T18:58:37.900Z,2.80
2023-03-29T19:01:06.837Z,2.80
2023-03-29T19:03:36.996Z,2.70
2023-03-29T19:06:05.416Z,2.70
2023-03-29T19:08:34.513Z,2.70
2023-03-29T19:11:03.778Z,2.80
2023-03-29T19:13:31.780Z,2.80
2023-03-29T19:15:59.978Z,2.80
2023-03-29T19:18:27.968Z,3.30
2023-03-29T19:20:57.383Z,2.80
2023-03-29T19:23:28.273Z,2.80
2023-03-29T19:25:57.641Z,2.80
2023-03-29T19:28:26.492Z,2.70
2023-03-29T19:30:54.736Z,2.80
2023-03-29T19:33:22.900Z,2.80
2023-03-29T19:35:51.418Z,2.80
2023-03-29T19:38:21.606Z,3.30
2023-03-29T19:40:51.382Z,2.80
2023-03-29T19:43:20.631Z,2.80
2023-03-29T19:45:50.297Z,3.40
2023-03-29T19:48:23.549Z,2.80
2023-03-29T19:50:52.490Z,2.80
2023-03-29T19:53:23.181Z,2.80
2023-03-29T19:55:51.217Z,2.80
2023-03-29T19:58:19.193Z,2.80
2023-03-29T20:00:48.220Z,2.80
2023-03-29T20:03:16.180Z,2.90
2023-03-29T20:05:44.365Z,2.80
2023-03-29T20:08:12.389Z,2.80
2023-03-29T20:10:42.467Z,2.90
2023-03-29T20:13:10.613Z,3.00
2023-03-29T20:15:38.525Z,3.00
2023-03-29T20:18:07.765Z,3.00
2023-03-29T20:20:35.824Z,3.10
2023-03-29T20:23:05.493Z,3.00
2023-03-29T20:25:33.671Z,3.10
2023-03-29T20:28:02.955Z,3.10
2023-03-29T20:30:31.011Z,3.10
2023-03-29T20:32:59.043Z,3.10
2023-03-29T20:35:27.138Z,3.10
2023-03-29T20:37:55.131Z,3.10
2023-03-29T20:40:23.148Z,3.10
2023-03-29T20:42:51.085Z,3.10
2023-03-29T20:45:20.440Z,3.10
2023-03-29T20:47:57.585Z,3.10
2023-03-29T20:50:29.166Z,3.10
2023-03-29T20:53:03.638Z,3.10
2023-03-29T20:55:33.180Z,3.10
2023-03-29T20:58:02.940Z,3.10
2023-03-29T21:00:35.369Z,3.10
2023-03-29T21:03:04.399Z,3.10
2023-03-29T21:05:33.704Z,3.10
2023-03-29T21:08:02.439Z,3.00
2023-03-29T21:10:30.944Z,3.00
2023-03-29T21:13:00.457Z,3.10
2023-03-29T21:15:30.463Z,3.10
2023-03-29T21:18:00.413Z,3.00
2023-03-29T21:20:28.659Z,3.00
2023-03-29T21:22:56.627Z,3.10
2023-03-29T21:25:24.597Z,3.10
2023-03-29T21:27:52.537Z,3.10
2023-03-29T21:30:20.595Z,3.10
2023-03-29T21:32:48.617Z,3.10
2023-03-29T21:35:18.066Z,3.00
2023-03-29T21:37:46.017Z,3.10
2023-03-29T21:40:15.216Z,3.10
2023-03-29T21:42:43.186Z,3.10
2023-03-29T21:45:11.920Z,3.10
2023-03-29T21:47:40.049Z,3.10
2023-03-29T21:50:09.362Z,3.00
2023-03-29T21:52:38.766Z,3.10
2023-03-29T21:55:07.593Z,3.10
2023-03-29T21:57:35.636Z,3.00
2023-03-29T22:00:05.184Z,3.10
2023-03-29T22:02:33.269Z,3.10
2023-03-29T22:05:01.327Z,3.10
2023-03-29T22:07:29.351Z,3.10
2023-03-29T22:10:04.226Z,3.10
2023-03-29T22:12:34.494Z,3.10
2023-03-29T22:15:02.916Z,3.10
2023-03-29T22:17:30.909Z,3.10
2023-03-29T22:19:59.206Z,3.10
2023-03-29T22:22:27.236Z,3.10
2023-03-29T22:24:55.828Z,3.10
2023-03-29T22:27:25.484Z,3.20
2023-03-29T22:29:53.542Z,3.10
2023-03-29T22:32:21.518Z,3.10
2023-03-29T22:34:49.491Z,3.10
2023-03-29T22:37:17.953Z,3.10
2023-03-29T22:39:46.486Z,3.10
2023-03-29T22:42:14.465Z,3.20
2023-03-29T22:44:43.865Z,3.20
2023-03-29T22:47:11.818Z,3.10
2023-03-29T22:49:39.856Z,3.10
2023-03-29T22:52:07.921Z,3.10
2023-03-29T22:54:35.925Z,3.10
2023-03-29T22:57:03.953Z,3.10
2023-03-29T22:59:32.035Z,3.20
2023-03-29T23:02:01.520Z,3.10
2023-03-29T23:04:29.632Z,3.10
2023-03-29T23:06:58.414Z,3.10
2023-03-29T23:09:26.342Z,3.10
2023-03-29T23:11:54.340Z,3.10
2023-03-29T23:14:22.759Z,3.10
2023-03-29T23:16:50.713Z,3.10
2023-03-29T23:19:20.064Z,3.10
2023-03-29T23:21:48.008Z,3.10
2023-03-29T23:24:19.071Z,3.10
2023-03-29T23:26:48.956Z,3.10
2023-03-29T23:29:16.969Z,3.10
2023-03-29T23:31:45.354Z,3.10
2023-03-29T23:34:13.498Z,3.20
2023-03-29T23:36:42.788Z,3.20
2023-03-29T23:39:10.957Z,3.10
2023-03-29T23:41:40.115Z,3.20
2023-03-29T23:44:08.088Z,3.20
2023-03-29T23:46:36.071Z,3.20
2023-03-29T23:49:04.141Z,3.20
2023-03-29T23:51:35.207Z,3.20
2023-03-29T23:54:04.698Z,3.20
2023-03-29T23:56:32.681Z,3.20
2023-03-29T23:59:01.441Z,3.20
